Time;durP1;ratioP1;P1;durP2;ratioP2;P2;SDS_P1;SDS_P2;PMS_P1;PMS_P2;Temp;Humidity;BMP_temperature;BMP_pressure;BME280_temperature;BME280_humidity;BME280_pressure;Samples;Min_cycle;Max_cycle;Signal;HPM_P1;HPM_P2
2023/02/10 00:01:32;;;;;;;0.82;0.60;;;;;;;0.99;36.02;96895.53;5088878;28;20205;-69
2023/02/10 00:03:59;;;;;;;0.80;0.80;;;;;;;1.10;35.73;96917.72;5089657;28;20274;-68
2023/02/10 00:06:27;;;;;;;0.00;0.00;;;;;;;1.15;35.62;96925.03;5088121;28;20191;-69
2023/02/10 00:08:58;;;;;;;0.52;0.52;;;;;;;1.29;35.75;96919.34;5088538;28;20629;-70
2023/02/10 00:14:15;;;;;;;0.95;0.95;;;;;;;1.28;35.32;96915.16;5077397;28;20315;-70
2023/02/10 00:16:41;;;;;;;2.38;0.63;;;;;;;1.19;35.48;96910.88;5088175;28;20228;-68
2023/02/10 00:19:08;;;;;;;0.55;0.55;;;;;;;1.10;35.93;96902.22;5070459;28;20601;-69
2023/02/10 00:21:35;;;;;;;0.00;0.00;;;;;;;1.10;35.83;96911.75;5100327;28;20202;-70
2023/02/10 00:24:03;;;;;;;0.20;0.20;;;;;;;1.06;35.43;96923.34;5110826;28;20242;-68
2023/02/10 00:26:29;;;;;;;0.75;0.75;;;;;;;0.90;35.88;96914.47;5087864;28;20602;-69
2023/02/10 00:28:56;;;;;;;0.15;0.15;;;;;;;0.90;35.56;96911.91;5088544;28;20654;-69
2023/02/10 00:31:23;;;;;;;4.80;2.28;;;;;;;0.77;35.94;96901.13;5090447;28;20263;-70
2023/02/10 00:33:50;;;;;;;0.30;0.30;;;;;;;0.73;36.02;96909.31;5073377;28;20317;-70
2023/02/10 00:36:17;;;;;;;0.68;0.68;;;;;;;0.80;36.11;96905.97;5091093;28;20222;-69
2023/02/10 00:38:44;;;;;;;0.00;0.00;;;;;;;0.75;35.59;96886.72;5073604;28;20238;-70
2023/02/10 00:41:14;;;;;;;1.55;1.45;;;;;;;0.82;35.64;96904.06;5090826;28;20597;-70
2023/02/10 00:43:44;;;;;;;3.70;3.35;;;;;;;0.71;36.40;96891.38;5091700;28;20191;-70
2023/02/10 00:46:12;;;;;;;0.65;0.65;;;;;;;0.84;36.46;96902.16;5091260;28;20199;-69
2023/02/10 00:48:42;;;;;;;0.00;0.00;;;;;;;0.71;36.50;96891.38;5073703;28;20196;-70
2023/02/10 00:51:11;;;;;;;1.30;0.80;;;;;;;0.63;36.17;96888.72;5090721;28;20199;-69
2023/02/10 00:53:38;;;;;;;0.10;0.10;;;;;;;0.44;36.75;96882.88;5091820;28;20672;-68
2023/02/10 00:56:05;;;;;;;0.10;0.10;;;;;;;0.46;36.67;96880.94;5090607;28;20207;-69
2023/02/10 00:58:34;;;;;;;3.55;1.75;;;;;;;0.58;36.17;96872.88;5091408;28;20675;-68
2023/02/10 01:01:02;;;;;;;1.05;1.05;;;;;;;0.50;37.12;96885.69;5090475;28;20663;-70
2023/02/10 01:03:29;;;;;;;0.75;0.75;;;;;;;0.46;37.22;96876.59;5072240;28;20196;-70
2023/02/10 01:05:56;;;;;;;0.08;0.08;;;;;;;0.52;36.76;96888.09;5090394;28;20193;-70
2023/02/10 01:08:23;;;;;;;0.80;0.80;;;;;;;0.49;36.78;96881.50;5090845;28;20198;-69
2023/02/10 01:11:01;;;;;;;1.65;0.98;;;;;;;0.68;36.82;96885.69;5091100;28;20751;-70
2023/02/10 01:13:29;;;;;;;6.13;2.88;;;;;;;0.49;36.88;96881.50;5078494;28;20602;-69
2023/02/10 01:15:56;;;;;;;1.23;1.17;;;;;;;0.45;37.34;96871.59;5071813;28;20230;-69
2023/02/10 01:18:23;;;;;;;7.32;1.75;;;;;;;0.47;36.79;96867.94;5090922;28;20195;-70
2023/02/10 01:20:50;;;;;;;0.50;0.50;;;;;;;0.49;36.47;96873.75;5089925;28;20199;-71
2023/02/10 01:23:17;;;;;;;0.00;0.00;;;;;;;0.27;36.75;96861.25;5090765;28;20196;-69
2023/02/10 01:25:44;;;;;;;0.35;0.35;;;;;;;0.50;37.22;96875.38;5071887;28;20204;-70
2023/02/10 01:28:12;;;;;;;0.25;0.25;;;;;;;0.57;36.94;96868.66;5071562;28;20284;-69
2023/02/10 01:30:39;;;;;;;0.00;0.00;;;;;;;0.43;36.56;96856.28;5089775;28;20340;-70
2023/02/10 01:33:05;;;;;;;1.35;1.17;;;;;;;0.46;37.01;96855.16;5072112;28;20654;-68
2023/02/10 01:35:32;;;;;;;6.32;1.00;;;;;;;0.49;37.12;96860.03;5089627;28;20203;-68
2023/02/10 01:37:59;;;;;;;0.45;0.43;;;;;;;0.40;36.66;96861.69;5090164;28;20302;-68
2023/02/10 01:40:26;;;;;;;0.35;0.35;;;;;;;0.31;36.82;96862.56;5071545;28;20217;-68
2023/02/10 01:42:53;;;;;;;3.05;1.95;;;;;;;0.33;36.83;96852.91;5089068;28;20675;-69
2023/02/10 01:45:35;;;;;;;0.28;0.25;;;;;;;0.46;36.50;96866.28;5071296;28;20206;-68
2023/02/10 01:48:03;;;;;;;0.00;0.00;;;;;;;0.28;36.64;96852.56;5071844;28;20187;-70
2023/02/10 01:50:36;;;;;;;0.52;0.52;;;;;;;0.40;36.42;96861.69;5089406;28;20586;-68
2023/02/10 01:53:05;;;;;;;0.00;0.00;;;;;;;0.19;37.02;96852.59;5089648;28;20281;-70
2023/02/10 01:55:35;;;;;;;0.17;0.17;;;;;;;0.07;36.72;96854.56;5072080;28;20248;-67
2023/02/10 01:58:06;;;;;;;0.00;0.00;;;;;;;0.07;36.87;96833.13;5090323;28;20303;-69
2023/02/10 02:00:33;;;;;;;0.57;0.57;;;;;;;0.22;36.26;96845.38;5070990;28;20924;-69
2023/02/10 02:03:01;;;;;;;0.00;0.00;;;;;;;0.23;36.27;96844.44;5089542;28;20195;-68
2023/02/10 02:05:35;;;;;;;0.15;0.15;;;;;;;0.08;36.58;96840.72;5088965;28;20199;-68
2023/02/10 02:08:06;;;;;;;0.00;0.00;;;;;;;-0.32;36.85;96835.06;5071491;28;20199;-68
2023/02/10 02:10:51;;;;;;;0.00;0.00;;;;;;;-0.25;36.75;96836.13;5089663;28;20192;-69
2023/02/10 02:13:33;;;;;;;0.00;0.00;;;;;;;-0.11;36.15;96827.94;5090423;28;20724;-66
2023/02/10 02:16:38;;;;;;;1.67;0.47;;;;;;;-0.03;36.06;96833.19;5091176;28;20199;-69
2023/02/10 02:19:43;;;;;;;0.35;0.30;;;;;;;0.07;36.35;96823.66;5076977;28;20203;-70
2023/02/10 02:22:10;;;;;;;0.00;0.00;;;;;;;0.09;36.41;96826.06;5055052;28;20677;-70
2023/02/10 02:25:01;;;;;;;0.65;0.65;;;;;;;0.21;36.23;96818.00;5065918;28;20207;-70
2023/02/10 02:28:06;;;;;;;0.00;0.00;;;;;;;0.18;36.39;96820.88;5077253;28;20230;-68
2023/02/10 02:30:38;;;;;;;0.80;0.45;;;;;;;0.29;35.93;96825.84;5071667;28;20621;-70
2023/02/10 02:33:35;;;;;;;0.00;0.00;;;;;;;0.21;36.22;96815.41;5088724;28;20661;-69
2023/02/10 02:36:27;;;;;;;0.00;0.00;;;;;;;-0.06;36.44;96812.84;5039908;28;20308;-69
2023/02/10 02:39:02;;;;;;;0.00;0.00;;;;;;;0.02;37.06;96818.09;5078869;28;20736;-69
2023/02/10 02:41:31;;;;;;;0.00;0.00;;;;;;;-0.18;37.12;96819.13;5088842;28;20194;-68
2023/02/10 02:44:01;;;;;;;0.52;0.43;;;;;;;-0.06;37.18;96818.00;5059819;28;20571;-68
2023/02/10 02:46:46;;;;;;;0.80;0.80;;;;;;;-0.12;37.44;96818.56;5086529;28;20203;-69
2023/02/10 02:49:25;;;;;;;0.10;0.10;;;;;;;-0.08;37.51;96825.88;5070605;28;20207;-69
2023/02/10 02:52:11;;;;;;;0.57;0.57;;;;;;;-0.06;37.57;96818.84;5088645;28;20615;-69
2023/02/10 02:54:58;;;;;;;0.00;0.00;;;;;;;-0.34;37.96;96803.47;5088829;28;20195;-69
2023/02/10 02:57:41;;;;;;;0.90;0.88;;;;;;;-0.25;38.11;96820.66;5088499;28;20230;-70
2023/02/10 03:00:20;;;;;;;0.05;0.05;;;;;;;-0.40;38.00;96824.66;5089564;28;20286;-70
2023/02/10 03:02:47;;;;;;;1.00;0.98;;;;;;;-0.40;38.08;96816.94;5075667;28;20213;-68
2023/02/10 03:05:23;;;;;;;0.35;0.20;;;;;;;-0.49;37.93;96807.47;5087838;28;20575;-69
2023/02/10 03:07:50;;;;;;;1.33;1.25;;;;;;;-0.40;37.46;96814.38;5088966;28;20737;-69
2023/02/10 03:10:17;;;;;;;1.05;1.00;;;;;;;-0.48;38.01;96816.81;5088129;28;20657;-69
2023/02/10 03:12:44;;;;;;;0.00;0.00;;;;;;;-0.39;38.03;96818.56;5070791;28;20568;-68
2023/02/10 03:15:11;;;;;;;0.00;0.00;;;;;;;-0.42;38.11;96814.50;5089854;28;20884;-69
2023/02/10 03:17:38;;;;;;;10.57;3.03;;;;;;;-0.43;38.48;96819.78;5092208;28;20673;-70
2023/02/10 03:20:06;;;;;;;0.35;0.35;;;;;;;-0.47;37.88;96808.13;5088888;28;20195;-69
2023/02/10 03:22:33;;;;;;;0.60;0.50;;;;;;;-0.46;38.14;96820.06;5089671;28;20604;-70
2023/02/10 03:25:05;;;;;;;0.00;0.00;;;;;;;-0.57;38.04;96799.66;5089160;28;20199;-68
2023/02/10 03:27:32;;;;;;;0.10;0.10;;;;;;;-0.55;37.84;96820.91;5092617;28;20231;-67
2023/02/10 03:29:59;;;;;;;0.22;0.22;;;;;;;-0.64;38.36;96824.34;5095465;28;20207;-69
2023/02/10 03:32:25;;;;;;;0.28;0.28;;;;;;;-0.90;38.45;96823.28;5088815;28;20205;-67
2023/02/10 03:34:52;;;;;;;1.83;0.82;;;;;;;-0.70;38.06;96823.13;5088293;28;20271;-68
2023/02/10 03:37:19;;;;;;;0.10;0.10;;;;;;;-0.74;38.35;96820.94;5088441;28;20221;-69
2023/02/10 03:39:46;;;;;;;0.15;0.15;;;;;;;-0.63;38.37;96828.50;5088464;28;20622;-69
2023/02/10 03:42:13;;;;;;;0.15;0.15;;;;;;;-0.67;38.27;96811.72;5088110;28;20636;-69
2023/02/10 03:44:40;;;;;;;0.05;0.05;;;;;;;-0.79;38.40;96815.41;5089423;28;20233;-68
2023/02/10 03:47:07;;;;;;;0.00;0.00;;;;;;;-0.83;38.62;96803.78;5088678;28;20219;-68
2023/02/10 03:49:34;;;;;;;0.00;0.00;;;;;;;-1.08;38.25;96780.25;5088479;28;20941;-70
2023/02/10 03:52:01;;;;;;;0.00;0.00;;;;;;;-0.87;38.27;96785.22;5088576;28;20195;-69
2023/02/10 03:54:28;;;;;;;1.95;1.67;;;;;;;-0.78;38.42;96807.56;5088202;28;20191;-69
2023/02/10 03:56:55;;;;;;;0.50;0.50;;;;;;;-0.73;37.94;96796.84;5089654;28;20306;-69
2023/02/10 03:59:23;;;;;;;0.00;0.00;;;;;;;-0.84;38.29;96804.72;5088413;28;20214;-69
2023/02/10 04:01:50;;;;;;;0.00;0.00;;;;;;;-0.89;38.65;96791.47;5087863;28;20737;-68
2023/02/10 04:04:17;;;;;;;0.00;0.00;;;;;;;-0.96;38.67;96785.25;5088054;28;20183;-67
2023/02/10 04:06:44;;;;;;;0.03;0.03;;;;;;;-0.85;38.56;96782.50;5091434;28;20205;-68
2023/02/10 04:09:11;;;;;;;0.00;0.00;;;;;;;-1.18;38.84;96784.59;5092285;28;20241;-68
2023/02/10 04:11:37;;;;;;;0.00;0.00;;;;;;;-1.05;39.04;96777.41;5092146;28;20278;-68
2023/02/10 04:14:04;;;;;;;0.10;0.10;;;;;;;-0.82;38.33;96792.53;5091938;28;20191;-68
2023/02/10 04:16:32;;;;;;;0.00;0.00;;;;;;;-0.89;38.96;96796.63;5091232;28;20729;-68
2023/02/10 04:18:58;;;;;;;0.00;0.00;;;;;;;-0.84;38.72;96799.59;5092096;28;20285;-68
2023/02/10 04:21:25;;;;;;;1.15;1.05;;;;;;;-0.96;38.36;96793.78;5091659;28;20219;-70
2023/02/10 04:23:53;;;;;;;0.00;0.00;;;;;;;-1.04;38.79;96793.66;5091242;28;20630;-70
2023/02/10 04:26:19;;;;;;;0.00;0.00;;;;;;;-0.92;38.66;96796.88;5091187;28;20227;-69
2023/02/10 04:28:46;;;;;;;0.00;0.00;;;;;;;-1.14;38.66;96798.81;5092572;28;20607;-68
2023/02/10 04:31:13;;;;;;;0.65;0.65;;;;;;;-1.13;38.70;96779.84;5091826;28;20198;-68
2023/02/10 04:33:40;;;;;;;0.20;0.20;;;;;;;-1.20;38.76;96804.50;5078183;28;20195;-68
2023/02/10 04:36:07;;;;;;;0.00;0.00;;;;;;;-1.10;38.63;96795.03;5091278;28;20195;-70
2023/02/10 04:38:35;;;;;;;0.45;0.45;;;;;;;-1.10;38.97;96791.63;5091767;28;20325;-68
2023/02/10 04:41:02;;;;;;;0.10;0.10;;;;;;;-1.06;38.73;96805.84;5090677;28;20191;-69
2023/02/10 04:43:32;;;;;;;0.00;0.00;;;;;;;-1.02;38.59;96787.41;5078245;28;20228;-70
2023/02/10 04:45:58;;;;;;;0.50;0.50;;;;;;;-1.39;39.00;96809.66;5090777;28;20634;-70
2023/02/10 04:48:25;;;;;;;0.20;0.20;;;;;;;-1.31;39.25;96812.34;5091625;28;20406;-70
2023/02/10 04:50:52;;;;;;;0.00;0.00;;;;;;;-1.16;38.51;96810.19;5090994;28;20575;-69
2023/02/10 04:53:20;;;;;;;0.00;0.00;;;;;;;-1.27;39.10;96808.56;5091780;28;20234;-69
2023/02/10 04:55:47;;;;;;;0.55;0.55;;;;;;;-1.27;39.34;96813.72;5091244;28;20685;-70
2023/02/10 04:58:14;;;;;;;0.05;0.05;;;;;;;-1.40;39.28;96804.63;5091177;28;20211;-69
2023/02/10 05:00:41;;;;;;;0.00;0.00;;;;;;;-1.45;39.31;96805.06;5090697;28;20226;-69
2023/02/10 05:03:08;;;;;;;1.30;1.20;;;;;;;-1.37;39.12;96799.25;5091595;28;20729;-69
2023/02/10 05:05:35;;;;;;;2.40;1.45;;;;;;;-1.43;39.19;96803.16;5090889;28;20268;-68
2023/02/10 05:08:01;;;;;;;0.00;0.00;;;;;;;-1.17;39.17;96819.66;5091392;28;20203;-71
2023/02/10 05:10:28;;;;;;;0.05;0.05;;;;;;;-1.49;39.50;96824.25;5086551;28;20195;-68
2023/02/10 05:12:55;;;;;;;0.28;0.28;;;;;;;-1.44;39.17;96816.16;5091115;28;20213;-69
2023/02/10 05:15:22;;;;;;;0.00;0.00;;;;;;;-1.52;39.46;96803.97;5089540;28;20278;-70
2023/02/10 05:17:49;;;;;;;2.38;2.17;;;;;;;-1.41;39.51;96824.41;5090941;28;20226;-70
2023/02/10 05:20:16;;;;;;;0.00;0.00;;;;;;;-1.36;39.18;96834.28;5091107;28;20229;-71
2023/02/10 05:22:43;;;;;;;0.28;0.28;;;;;;;-1.50;39.17;96840.66;5092257;28;20196;-70
2023/02/10 05:25:11;;;;;;;0.00;0.00;;;;;;;-1.47;39.57;96855.78;5091823;28;20195;-69
2023/02/10 05:27:38;;;;;;;18.33;1.25;;;;;;;-1.58;39.44;96850.78;5091773;28;20231;-67
2023/02/10 05:30:09;;;;;;;0.00;0.00;;;;;;;-1.63;39.52;96852.94;5090773;28;20203;-69
2023/02/10 05:32:36;;;;;;;0.00;0.00;;;;;;;-1.70;39.84;96867.28;5091285;28;20324;-69
2023/02/10 05:35:02;;;;;;;0.57;0.57;;;;;;;-1.82;40.03;96872.63;5090837;28;20248;-67
2023/02/10 05:37:29;;;;;;;0.17;0.17;;;;;;;-1.74;39.74;96858.19;5090680;28;20284;-66
2023/02/10 05:39:56;;;;;;;0.00;0.00;;;;;;;-1.92;39.96;96864.91;5090272;28;20191;-69
2023/02/10 05:42:23;;;;;;;0.57;0.57;;;;;;;-1.99;40.98;96874.09;5090710;28;20256;-65
2023/02/10 05:44:50;;;;;;;0.05;0.05;;;;;;;-1.61;40.34;96866.47;5090670;28;20262;-69
2023/02/10 05:47:17;;;;;;;0.28;0.28;;;;;;;-1.28;40.37;96878.94;5090736;28;20272;-69
2023/02/10 05:49:44;;;;;;;0.00;0.00;;;;;;;-1.30;39.37;96880.03;5090251;28;20210;-69
2023/02/10 05:52:12;;;;;;;0.00;0.00;;;;;;;-140.05;100.00;61859.38;5090242;28;20203;-69
2023/02/10 05:54:40;;;;;;;0.28;0.28;;;;;;;-140.05;100.00;61859.38;5092296;28;20195;-71
2023/02/10 05:57:07;;;;;;;0.73;0.68;;;;;;;-140.05;100.00;61859.38;5090649;28;20260;-67
2023/02/10 05:59:34;;;;;;;1.00;0.82;;;;;;;-140.05;100.00;61859.38;5087846;28;20193;-66
2023/02/10 06:02:01;;;;;;;0.13;0.13;;;;;;;-140.05;100.00;61859.38;5090694;28;20226;-66
2023/02/10 06:04:29;;;;;;;2.15;1.95;;;;;;;-140.05;100.00;61859.38;5090524;28;20211;-67
2023/02/10 06:06:55;;;;;;;1.75;1.65;;;;;;;-140.05;100.00;61859.38;5089395;28;20199;-67
2023/02/10 06:09:22;;;;;;;3.38;3.17;;;;;;;-140.05;100.00;61859.38;5090066;28;20227;-67
2023/02/10 06:11:51;;;;;;;2.90;2.58;;;;;;;-140.05;100.00;61859.38;5089181;28;20250;-65
2023/02/10 06:14:18;;;;;;;1.38;1.27;;;;;;;-140.05;100.00;61859.38;5090005;28;20245;-67
2023/02/10 06:16:46;;;;;;;1.70;1.60;;;;;;;-140.05;100.00;61859.38;5089190;28;20199;-68
2023/02/10 06:19:13;;;;;;;0.77;0.60;;;;;;;-140.05;100.00;61859.38;5090305;28;20211;-67
2023/02/10 06:21:40;;;;;;;0.30;0.30;;;;;;;-140.05;100.00;61859.38;5089656;28;20195;-68
2023/02/10 06:24:07;;;;;;;0.52;0.52;;;;;;;-140.05;100.00;61859.38;5089983;28;20248;-68
2023/02/10 06:26:33;;;;;;;0.13;0.13;;;;;;;-140.05;100.00;61859.38;5090408;28;20374;-67
2023/02/10 06:29:00;;;;;;;1.08;1.08;;;;;;;-140.05;100.00;61859.38;5090434;28;20582;-67
2023/02/10 06:31:28;;;;;;;14.75;4.70;;;;;;;-140.05;100.00;61859.38;5090814;28;20560;-67
2023/02/10 06:33:55;;;;;;;0.60;0.60;;;;;;;-140.05;100.00;61859.38;5090095;28;20555;-66
2023/02/10 06:36:22;;;;;;;4.78;3.10;;;;;;;-140.05;100.00;61859.38;5090280;28;20199;-65
2023/02/10 06:38:49;;;;;;;1.38;1.27;;;;;;;-140.05;100.00;61859.38;5089521;28;20219;-66
2023/02/10 06:41:16;;;;;;;0.00;0.00;;;;;;;-140.05;100.00;61859.38;5071014;28;20206;-67
2023/02/10 06:43:43;;;;;;;1.55;0.95;;;;;;;-140.05;100.00;61859.38;5089687;28;20195;-65
2023/02/10 06:46:12;;;;;;;0.52;0.52;;;;;;;-140.05;100.00;61859.38;5089613;28;20194;-67
2023/02/10 06:48:39;;;;;;;0.00;0.00;;;;;;;-140.05;100.00;61859.38;5089158;28;20732;-66
2023/02/10 06:51:06;;;;;;;0.00;0.00;;;;;;;-140.05;100.00;61859.38;5087242;28;20191;-67
2023/02/10 06:53:35;;;;;;;0.65;0.65;;;;;;;-140.05;100.00;61859.38;5087640;28;20271;-67
2023/02/10 06:56:05;;;;;;;10.82;2.00;;;;;;;-140.05;100.00;61859.38;5087861;28;20195;-67
2023/02/10 06:58:32;;;;;;;0.00;0.00;;;;;;;-140.05;100.00;61859.38;5087441;28;20226;-66
2023/02/10 07:01:00;;;;;;;26.30;2.75;;;;;;;-140.05;100.00;61859.38;5086736;28;20201;-67
2023/02/10 07:03:28;;;;;;;1.95;1.80;;;;;;;-140.05;100.00;61859.38;5088469;28;20873;-66
2023/02/10 07:05:55;;;;;;;0.08;0.08;;;;;;;-140.05;100.00;61859.38;5088583;28;20203;-67
2023/02/10 07:08:22;;;;;;;0.32;0.32;;;;;;;-140.05;100.00;61859.38;5089198;28;20651;-67
2023/02/10 07:10:49;;;;;;;0.55;0.55;;;;;;;-140.05;100.00;61859.38;5088706;28;20199;-68
2023/02/10 07:13:16;;;;;;;0.10;0.10;;;;;;;-140.05;100.00;61859.38;5089112;28;20234;-66
2023/02/10 07:15:43;;;;;;;3.70;2.72;;;;;;;-140.05;100.00;61859.38;5088497;28;20212;-67
2023/02/10 07:18:10;;;;;;;4.03;2.28;;;;;;;-140.05;100.00;61859.38;5088723;28;20604;-68
2023/02/10 07:20:37;;;;;;;0.00;0.00;;;;;;;-140.05;100.00;61859.38;5088948;28;20264;-67
2023/02/10 07:23:04;;;;;;;0.28;0.28;;;;;;;-140.05;100.00;61859.38;5088866;28;20199;-67
2023/02/10 07:25:31;;;;;;;0.10;0.10;;;;;;;-140.05;100.00;61859.38;5088980;28;20206;-66
2023/02/10 07:27:57;;;;;;;0.75;0.75;;;;;;;-140.05;100.00;61859.38;5089314;28;20321;-66
2023/02/10 07:30:25;;;;;;;0.05;0.05;;;;;;;-140.05;100.00;61859.38;5082298;28;20698;-67
2023/02/10 07:32:52;;;;;;;2.95;2.72;;;;;;;-140.05;100.00;61859.38;5082384;28;20207;-66
2023/02/10 07:35:19;;;;;;;1.25;1.15;;;;;;;-140.05;100.00;61859.38;5088960;28;20248;-66
2023/02/10 07:37:49;;;;;;;2.38;0.65;;;;;;;-140.05;100.00;61859.38;5070756;28;20686;-68
2023/02/10 07:40:15;;;;;;;0.88;0.75;;;;;;;-140.05;100.00;61859.38;5090384;28;20221;-66
2023/02/10 07:42:42;;;;;;;1.65;1.55;;;;;;;-140.05;100.00;61859.38;5093058;28;20580;-66
2023/02/10 07:45:22;;;;;;;0.20;0.20;;;;;;;-140.05;100.00;61859.38;5074572;28;20210;-65
2023/02/10 07:47:49;;;;;;;2.08;1.08;;;;;;;-140.05;100.00;61859.38;5093963;28;20198;-66
2023/02/10 07:50:16;;;;;;;0.93;0.93;;;;;;;-140.05;100.00;61859.38;5092121;28;20198;-66
2023/02/10 07:52:43;;;;;;;0.50;0.50;;;;;;;-140.05;100.00;61859.38;5092916;28;20227;-66
2023/02/10 07:55:10;;;;;;;5.80;4.40;;;;;;;-140.05;100.00;61859.38;5092414;28;20274;-66
2023/02/10 07:57:38;;;;;;;0.55;0.55;;;;;;;-140.05;100.00;61859.38;5092855;28;20219;-64
2023/02/10 08:00:07;;;;;;;0.22;0.22;;;;;;;-140.05;100.00;61859.38;5092580;28;20219;-66
2023/02/10 08:02:38;;;;;;;0.68;0.28;;;;;;;-140.05;100.00;61859.38;5093121;28;20199;-65
2023/02/10 08:05:06;;;;;;;1.95;1.45;;;;;;;-140.05;100.00;61859.38;5092562;28;20561;-64
2023/02/10 08:07:33;;;;;;;0.63;0.63;;;;;;;-140.05;100.00;61859.38;5092421;28;20196;-67
2023/02/10 08:10:00;;;;;;;1.65;1.33;;;;;;;-140.05;100.00;61859.38;5091874;28;20199;-68
2023/02/10 08:12:27;;;;;;;0.55;0.55;;;;;;;-140.05;100.00;61859.38;5092189;28;20183;-66
2023/02/10 08:14:53;;;;;;;0.55;0.55;;;;;;;-140.05;100.00;61859.38;5092543;28;20928;-66
2023/02/10 08:17:20;;;;;;;9.15;3.17;;;;;;;-140.05;100.00;61859.38;5092963;28;20724;-66
2023/02/10 08:19:48;;;;;;;3.90;1.45;;;;;;;-140.05;100.00;61859.38;5092267;28;20222;-64
2023/02/10 08:22:15;;;;;;;0.00;0.00;;;;;;;-140.05;100.00;61859.38;5091715;28;20203;-67
2023/02/10 08:24:42;;;;;;;0.47;0.47;;;;;;;-140.05;100.00;61859.38;5091660;28;20621;-65
2023/02/10 08:27:09;;;;;;;1.10;1.08;;;;;;;-140.05;100.00;61859.38;5090802;28;20234;-67
2023/02/10 08:29:38;;;;;;;1.55;1.10;;;;;;;-140.05;100.00;61859.38;5091189;28;20708;-68
2023/02/10 08:32:05;;;;;;;0.00;0.00;;;;;;;-140.05;100.00;61859.38;5078360;28;20280;-67
2023/02/10 08:34:32;;;;;;;1.83;1.73;;;;;;;-140.05;100.00;61859.38;5090699;28;20206;-66
2023/02/10 08:37:00;;;;;;;0.08;0.08;;;;;;;-140.05;100.00;61859.38;5090397;28;20737;-67
2023/02/10 08:39:28;;;;;;;5.95;2.15;;;;;;;-140.05;100.00;61859.38;5091761;28;20697;-66
2023/02/10 08:41:55;;;;;;;0.30;0.30;;;;;;;-140.05;100.00;61859.38;5091020;28;20209;-66
2023/02/10 08:44:22;;;;;;;3.20;1.33;;;;;;;-140.05;100.00;61859.38;5072284;28;20187;-66
2023/02/10 08:46:49;;;;;;;0.93;0.93;;;;;;;-140.05;100.00;61859.38;5089977;28;20198;-66
2023/02/10 08:49:16;;;;;;;0.22;0.22;;;;;;;-140.05;100.00;61859.38;5090413;28;20750;-66
2023/02/10 08:51:43;;;;;;;1.27;1.10;;;;;;;-140.05;100.00;61859.38;5090033;28;20201;-64
2023/02/10 08:54:09;;;;;;;3.33;3.03;;;;;;;-140.05;100.00;61859.38;5090630;28;20324;-66
2023/02/10 08:56:36;;;;;;;0.90;0.88;;;;;;;-140.05;100.00;61859.38;5090425;28;20202;-65
2023/02/10 08:59:03;;;;;;;3.78;2.95;;;;;;;-140.05;100.00;61859.38;5090873;28;20322;-66
2023/02/10 09:01:30;;;;;;;1.15;0.82;;;;;;;-140.05;100.00;61859.38;5090379;28;20244;-67
2023/02/10 09:03:57;;;;;;;1.23;1.13;;;;;;;-140.05;100.00;61859.38;5090950;28;20241;-67
2023/02/10 09:06:28;;;;;;;2.67;1.83;;;;;;;-140.05;100.00;61859.38;5090611;28;20658;-67
2023/02/10 09:08:55;;;;;;;3.67;1.98;;;;;;;-140.05;100.00;61859.38;5091750;28;20673;-64
2023/02/10 09:11:23;;;;;;;4.68;1.75;;;;;;;-140.05;100.00;61859.38;5093010;28;20219;-65
2023/02/10 09:13:51;;;;;;;2.97;2.72;;;;;;;-140.05;100.00;61859.38;5089857;28;20191;-64
2023/02/10 09:16:18;;;;;;;1.77;1.17;;;;;;;-140.05;100.00;61859.38;5089892;28;20206;-65
2023/02/10 09:18:45;;;;;;;2.70;2.47;;;;;;;-140.05;100.00;61859.38;5091083;28;20214;-64
2023/02/10 09:21:12;;;;;;;0.30;0.30;;;;;;;-140.05;100.00;61859.38;5089466;28;20248;-68
2023/02/10 09:23:39;;;;;;;1.45;1.35;;;;;;;-140.05;100.00;61859.38;5076699;28;20724;-66
2023/02/10 09:26:06;;;;;;;0.63;0.63;;;;;;;-140.05;100.00;61859.38;5049778;28;1123843;-67
2023/02/10 09:28:33;;;;;;;0.10;0.10;;;;;;;-140.05;100.00;61859.38;5090792;28;20229;-66
2023/02/10 09:31:03;;;;;;;0.82;0.82;;;;;;;-140.05;100.00;61859.38;5097851;28;20194;-63
2023/02/10 09:33:30;;;;;;;1.30;1.25;;;;;;;-140.05;100.00;61859.38;5098357;28;20222;-65
2023/02/10 09:35:57;;;;;;;3.22;2.67;;;;;;;-140.05;100.00;61859.38;5090768;28;20195;-65
2023/02/10 09:38:24;;;;;;;4.00;2.15;;;;;;;-140.05;100.00;61859.38;5090828;28;20235;-65
2023/02/10 09:41:13;;;;;;;3.70;1.25;;;;;;;-140.05;100.00;61859.38;5090439;28;20252;-68
2023/02/10 09:44:11;;;;;;;6.70;2.47;;;;;;;-140.05;100.00;61859.38;5079620;28;20654;-66
2023/02/10 09:46:47;;;;;;;3.60;0.60;;;;;;;-140.05;100.00;61859.38;5093097;28;20195;-64
2023/02/10 09:49:26;;;;;;;2.38;1.27;;;;;;;-140.05;100.00;61859.38;5090219;28;20190;-64
2023/02/10 09:52:12;;;;;;;0.22;0.22;;;;;;;-140.05;100.00;61859.38;5089892;28;20663;-64
2023/02/10 09:54:39;;;;;;;7.78;1.95;;;;;;;-140.05;100.00;61859.38;5090660;28;20240;-64
2023/02/10 09:57:36;;;;;;;0.15;0.15;;;;;;;-140.05;100.00;61859.38;5090158;28;20195;-65
2023/02/10 10:00:11;;;;;;;0.17;0.17;;;;;;;-140.05;100.00;61859.38;5083188;28;20233;-66
2023/02/10 10:02:48;;;;;;;2.95;2.03;;;;;;;-140.05;100.00;61859.38;5089359;28;20205;-65
2023/02/10 10:05:24;;;;;;;0.10;0.10;;;;;;;-140.05;100.00;61859.38;5089820;28;20198;-65
2023/02/10 10:07:53;;;;;;;0.38;0.35;;;;;;;-140.05;100.00;61859.38;5090560;28;20302;-64
2023/02/10 10:10:40;;;;;;;0.68;0.68;;;;;;;-140.05;100.00;61859.38;5089525;28;20555;-65
2023/02/10 10:13:28;;;;;;;2.05;1.85;;;;;;;-140.05;100.00;61859.38;5090480;28;20225;-67
2023/02/10 10:16:01;;;;;;;0.93;0.93;;;;;;;-140.05;100.00;61859.38;5079438;28;20268;-64
2023/02/10 10:19:03;;;;;;;2.28;1.27;;;;;;;-140.05;100.00;61859.38;5089619;28;20671;-62
2023/02/10 10:21:42;;;;;;;0.80;0.60;;;;;;;-140.05;100.00;61859.38;5089591;28;20204;-66
2023/02/10 10:24:41;;;;;;;1.15;0.80;;;;;;;-140.05;100.00;61859.38;5089689;28;20763;-67
2023/02/10 10:27:13;;;;;;;2.30;1.75;;;;;;;-140.05;100.00;61859.38;5089245;28;20658;-66
2023/02/10 10:29:55;;;;;;;5.07;0.98;;;;;;;-140.05;100.00;61859.38;5090184;28;20222;-66
2023/02/10 10:32:50;;;;;;;0.20;0.20;;;;;;;-140.05;100.00;61859.38;5090184;28;20551;-65
2023/02/10 10:35:27;;;;;;;0.68;0.68;;;;;;;-140.05;100.00;61859.38;5088904;28;20204;-66
2023/02/10 10:37:55;;;;;;;2.00;1.90;;;;;;;-140.05;100.00;61859.38;5089257;28;20206;-64
2023/02/10 10:40:32;;;;;;;11.68;2.22;;;;;;;-140.05;100.00;61859.38;5089287;28;20749;-65
2023/02/10 10:43:00;;;;;;;0.77;0.77;;;;;;;-140.05;100.00;61859.38;5089403;28;20203;-64
2023/02/10 10:45:41;;;;;;;0.47;0.47;;;;;;;-140.05;100.00;61859.38;5089020;28;20198;-64
2023/02/10 10:48:25;;;;;;;0.28;0.28;;;;;;;-140.05;100.00;61859.38;5089260;28;20274;-66
2023/02/10 10:50:55;;;;;;;2.08;1.85;;;;;;;-140.05;100.00;61859.38;5088598;28;20195;-66
2023/02/10 10:53:32;;;;;;;1.20;1.10;;;;;;;-140.05;100.00;61859.38;5090780;28;20195;-64
2023/02/10 10:56:02;;;;;;;4.15;2.45;;;;;;;-140.05;100.00;61859.38;5089078;28;20187;-66
2023/02/10 10:58:40;;;;;;;0.00;0.00;;;;;;;-140.05;100.00;61859.38;5089924;28;20191;-65
2023/02/10 11:01:07;;;;;;;5.13;3.03;;;;;;;-140.05;100.00;61859.38;5089322;28;20203;-65
2023/02/10 11:03:34;;;;;;;0.40;0.40;;;;;;;-140.05;100.00;61859.38;5088937;28;20198;-63
2023/02/10 11:06:15;;;;;;;1.02;1.02;;;;;;;-140.05;100.00;61859.38;5089043;28;20191;-65
2023/02/10 11:08:53;;;;;;;0.45;0.45;;;;;;;-140.05;100.00;61859.38;5089394;28;20401;-65
2023/02/10 11:11:36;;;;;;;0.20;0.20;;;;;;;-140.05;100.00;61859.38;5088784;28;20203;-67
2023/02/10 11:14:18;;;;;;;0.17;0.17;;;;;;;-140.05;100.00;61859.38;5076682;28;20375;-64
2023/02/10 11:16:51;;;;;;;0.57;0.57;;;;;;;-140.05;100.00;61859.38;5088000;28;20202;-65
2023/02/10 11:19:24;;;;;;;1.90;1.75;;;;;;;-140.05;100.00;61859.38;5089195;28;20325;-65
2023/02/10 11:21:52;;;;;;;0.68;0.68;;;;;;;-140.05;100.00;61859.38;5088716;28;20286;-65
2023/02/10 11:24:26;;;;;;;2.05;1.05;;;;;;;-140.05;100.00;61859.38;5088848;28;20191;-66
2023/02/10 11:27:05;;;;;;;2.25;2.05;;;;;;;-140.05;100.00;61859.38;5088366;28;20554;-64
2023/02/10 11:29:40;;;;;;;2.92;2.67;;;;;;;-140.05;100.00;61859.38;5089133;28;20293;-68
2023/02/10 11:32:22;;;;;;;0.10;0.10;;;;;;;-140.05;100.00;61859.38;5075685;28;20199;-65
2023/02/10 11:34:52;;;;;;;1.50;0.88;;;;;;;-140.05;100.00;61859.38;5089104;28;20191;-63
2023/02/10 11:37:39;;;;;;;3.13;2.13;;;;;;;-140.05;100.00;61859.38;5088610;28;20286;-64
2023/02/10 11:40:21;;;;;;;3.25;2.55;;;;;;;-140.05;100.00;61859.38;5086995;28;20291;-65